Time;durP1;ratioP1;P1;durP2;ratioP2;P2;SDS_P1;SDS_P2;PMS_P1;PMS_P2;Temp;Humidity;BMP_temperature;BMP_pressure;BME280_temperature;BME280_humidity;BME280_pressure;Samples;Min_cycle;Max_cycle;Signal;HPM_P1;HPM_P2
2022/04/02 00:02:25;;;;;;;2.33;2.10;;;1.80;72.30;;;;;;5057993;28;20245;-68
2022/04/02 00:04:51;;;;;;;3.93;2.07;;;1.80;72.10;;;;;;5054249;28;20225;-69
2022/04/02 00:07:16;;;;;;;2.17;1.97;;;1.60;72.80;;;;;;5054791;28;20270;-68
2022/04/02 00:09:43;;;;;;;2.40;1.93;;;1.40;73.40;;;;;;5057518;28;20202;-68
2022/04/02 00:12:08;;;;;;;4.10;2.10;;;1.50;73.80;;;;;;5053391;28;20278;-69
2022/04/02 00:14:34;;;;;;;2.23;2.03;;;1.50;73.90;;;;;;5054326;28;20198;-67
2022/04/02 00:16:59;;;;;;;2.70;2.07;;;1.70;73.50;;;;;;5059172;28;20544;-67
2022/04/02 00:19:25;;;;;;;5.07;2.03;;;1.70;73.80;;;;;;5061635;28;20510;-67
2022/04/02 00:21:51;;;;;;;4.23;1.80;;;1.70;73.90;;;;;;5054452;28;20178;-68
2022/04/02 00:24:16;;;;;;;3.27;2.97;;;1.60;74.00;;;;;;5055023;28;20206;-67
2022/04/02 00:26:41;;;;;;;5.33;2.30;;;1.50;74.70;;;;;;5056463;28;20739;-68
2022/04/02 00:29:10;;;;;;;5.53;2.10;;;1.60;74.80;;;;;;5059282;28;20216;-67
2022/04/02 00:31:36;;;;;;;4.90;2.03;;;1.60;75.20;;;;;;5059550;28;20260;-68
2022/04/02 00:34:02;;;;;;;3.83;2.07;;;1.70;75.50;;;;;;5055886;28;20192;-68
2022/04/02 00:36:28;;;;;;;4.10;2.50;;;1.60;75.40;;;;;;5060633;28;20178;-69
2022/04/02 00:38:53;;;;;;;2.10;1.90;;;1.70;75.70;;;;;;5059673;28;20662;-68
2022/04/02 00:41:19;;;;;;;3.80;2.00;;;1.80;75.60;;;;;;5057771;28;20569;-68
2022/04/02 00:44:14;;;;;;;2.10;1.90;;;1.60;76.10;;;;;;5056814;28;20198;-69
2022/04/02 00:46:44;;;;;;;2.27;1.63;;;1.70;75.90;;;;;;5060006;28;20559;-68
2022/04/02 00:49:12;;;;;;;3.43;1.77;;;1.70;76.50;;;;;;5060214;28;20217;-68
2022/04/02 00:51:41;;;;;;;3.20;1.80;;;1.90;76.60;;;;;;5064121;28;20222;-67
2022/04/02 00:54:28;;;;;;;4.67;1.83;;;1.80;76.60;;;;;;5055714;28;20700;-66
2022/04/02 00:56:54;;;;;;;2.73;2.00;;;1.60;77.70;;;;;;5050696;28;20237;-66
2022/04/02 00:59:19;;;;;;;3.07;2.20;;;1.60;78.00;;;;;;5055360;28;20657;-67
2022/04/02 01:01:45;;;;;;;2.43;1.83;;;1.50;78.60;;;;;;5055579;28;20203;-67
2022/04/02 01:04:10;;;;;;;2.37;2.17;;;1.30;79.50;;;;;;5056228;28;20290;-68
2022/04/02 01:06:37;;;;;;;6.50;2.23;;;1.20;80.40;;;;;;5051636;28;20696;-68
2022/04/02 01:09:02;;;;;;;3.33;2.23;;;1.30;81.50;;;;;;5057286;28;20221;-68
2022/04/02 01:11:36;;;;;;;2.63;2.20;;;1.40;81.00;;;;;;5059041;28;20221;-69
2022/04/02 01:14:02;;;;;;;3.93;1.57;;;1.50;81.30;;;;;;5054886;28;20698;-67
2022/04/02 01:16:27;;;;;;;3.67;1.97;;;1.60;81.00;;;;;;5052538;28;20273;-70
2022/04/02 01:18:53;;;;;;;2.53;1.93;;;1.60;81.20;;;;;;5053380;28;20213;-65
2022/04/02 01:21:19;;;;;;;5.33;2.13;;;1.50;81.20;;;;;;5054984;28;20209;-74
2022/04/02 01:23:44;;;;;;;2.73;2.20;;;1.40;82.40;;;;;;5064157;28;20193;-73
2022/04/02 01:26:10;;;;;;;3.93;2.50;;;1.10;84.00;;;;;;5050678;28;20257;-67
2022/04/02 01:28:35;;;;;;;2.10;1.90;;;1.00;85.00;;;;;;5060674;28;20289;-64
2022/04/02 01:31:06;;;;;;;4.80;2.57;;;1.10;85.40;;;;;;5048249;28;20224;-66
2022/04/02 01:33:31;;;;;;;2.97;1.87;;;1.20;85.70;;;;;;5063743;28;20219;-66
2022/04/02 01:36:01;;;;;;;3.77;1.90;;;1.20;85.60;;;;;;5061761;28;20198;-65
2022/04/02 01:38:28;;;;;;;3.03;1.83;;;1.30;86.50;;;;;;5060914;28;20176;-65
2022/04/02 01:40:54;;;;;;;5.53;1.93;;;1.30;86.20;;;;;;5048245;28;20307;-65
2022/04/02 01:43:20;;;;;;;4.70;2.17;;;1.20;87.60;;;;;;5057252;28;20374;-65
2022/04/02 01:45:45;;;;;;;2.97;1.57;;;1.20;87.30;;;;;;5061200;28;20203;-69
2022/04/02 01:48:11;;;;;;;3.30;2.17;;;1.20;88.20;;;;;;5057093;28;20188;-69
2022/04/02 01:50:36;;;;;;;4.07;2.07;;;1.30;89.10;;;;;;5055613;28;20847;-69
2022/04/02 01:53:02;;;;;;;3.27;2.10;;;1.20;88.90;;;;;;5059636;28;20192;-67
2022/04/02 01:55:28;;;;;;;3.17;2.50;;;1.10;89.60;;;;;;5057195;28;20189;-67
2022/04/02 01:57:54;;;;;;;6.03;2.20;;;1.40;89.70;;;;;;5048041;28;20248;-64
2022/04/02 02:00:21;;;;;;;3.27;2.13;;;1.50;89.60;;;;;;5062010;28;20200;-65
2022/04/02 02:02:47;;;;;;;2.27;1.97;;;1.40;89.70;;;;;;5068762;28;20177;-65
2022/04/02 02:05:13;;;;;;;2.27;1.80;;;1.30;90.00;;;;;;5060403;28;21187;-68
2022/04/02 02:07:38;;;;;;;3.40;2.17;;;1.20;90.70;;;;;;5051959;28;20193;-69
2022/04/02 02:10:05;;;;;;;2.57;2.23;;;1.20;90.70;;;;;;5064717;28;20880;-69
2022/04/02 02:12:30;;;;;;;2.07;1.87;;;1.30;90.80;;;;;;5052778;28;20208;-68
2022/04/02 02:14:56;;;;;;;4.50;2.00;;;1.50;90.40;;;;;;5052001;28;20372;-71
2022/04/02 02:17:21;;;;;;;3.13;2.23;;;1.50;90.60;;;;;;5062838;28;20210;-69
2022/04/02 02:19:47;;;;;;;4.73;2.27;;;1.60;90.20;;;;;;5058416;28;20251;-69
2022/04/02 02:22:12;;;;;;;2.93;1.97;;;1.50;90.80;;;;;;5043354;28;20914;-66
2022/04/02 02:24:38;;;;;;;2.70;1.80;;;1.50;90.60;;;;;;5061026;28;20209;-69
2022/04/02 02:27:03;;;;;;;4.27;1.90;;;1.50;91.10;;;;;;5046402;28;20210;-69
2022/04/02 02:29:29;;;;;;;4.23;1.77;;;1.50;91.20;;;;;;5051245;28;20236;-70
2022/04/02 02:31:55;;;;;;;2.13;1.70;;;1.50;91.20;;;;;;5061616;28;20659;-70
2022/04/02 02:37:05;;;;;;;5.93;3.13;;;1.40;91.80;;;;;;5061551;28;20342;-69
2022/04/02 02:39:30;;;;;;;4.23;2.20;;;1.50;91.70;;;;;;5051274;28;20213;-69
2022/04/02 02:41:56;;;;;;;2.07;1.80;;;1.30;92.30;;;;;;5054464;28;20198;-68
2022/04/02 02:44:22;;;;;;;5.20;1.70;;;1.50;92.10;;;;;;5052900;28;20221;-68
2022/04/02 02:46:47;;;;;;;2.63;1.60;;;1.40;92.60;;;;;;5050879;28;20227;-69
2022/04/02 02:49:13;;;;;;;6.23;2.20;;;1.30;92.50;;;;;;5052344;28;20639;-70
2022/04/02 02:51:38;;;;;;;5.57;1.77;;;1.50;92.70;;;;;;5059100;28;20232;-70
2022/04/02 02:54:04;;;;;;;4.67;1.83;;;1.40;92.90;;;;;;5057000;28;20201;-70
2022/04/02 02:56:29;;;;;;;3.83;2.13;;;1.40;93.20;;;;;;5049925;28;20604;-70
2022/04/02 02:58:54;;;;;;;4.07;1.83;;;1.40;93.40;;;;;;5060566;28;20198;-70
2022/04/02 03:01:20;;;;;;;5.37;3.07;;;1.50;93.30;;;;;;5047811;28;20726;-70
2022/04/02 03:03:45;;;;;;;2.53;1.97;;;1.30;93.60;;;;;;5065459;28;20209;-69
2022/04/02 03:06:11;;;;;;;3.53;2.13;;;1.30;93.70;;;;;;5067207;28;20194;-70
2022/04/02 03:08:36;;;;;;;3.50;1.80;;;1.30;94.00;;;;;;5055705;28;20316;-70
2022/04/02 03:11:02;;;;;;;2.63;1.90;;;1.20;94.20;;;;;;5067462;28;20270;-69
2022/04/02 03:13:28;;;;;;;6.13;2.07;;;1.00;94.70;;;;;;5065493;28;20317;-71
2022/04/02 03:15:53;;;;;;;3.87;2.27;;;1.00;95.20;;;;;;5062764;28;20208;-69
2022/04/02 03:18:19;;;;;;;4.07;2.07;;;1.20;95.00;;;;;;5055162;28;20663;-69
2022/04/02 03:20:45;;;;;;;2.83;1.90;;;1.00;95.30;;;;;;5067638;28;20193;-68
2022/04/02 03:23:10;;;;;;;3.23;2.13;;;1.20;95.30;;;;;;5063396;28;20195;-72
2022/04/02 03:25:36;;;;;;;3.37;2.00;;;1.00;95.50;;;;;;5056720;28;20201;-69
2022/04/02 03:28:04;;;;;;;2.87;1.70;;;0.90;96.20;;;;;;5056592;28;20208;-69
2022/04/02 03:30:29;;;;;;;2.23;2.03;;;1.10;96.00;;;;;;5067787;28;20200;-70
2022/04/02 03:32:55;;;;;;;3.13;1.83;;;1.30;95.60;;;;;;5055360;28;20726;-70
2022/04/02 03:35:21;;;;;;;1.60;1.50;;;1.30;95.40;;;;;;5047613;28;20687;-69
2022/04/02 03:37:48;;;;;;;3.10;1.80;;;1.40;95.40;;;;;;5046488;28;20221;-69
2022/04/02 03:40:20;;;;;;;5.77;1.80;;;1.20;95.50;;;;;;5051239;28;20602;-67
2022/04/02 03:42:46;;;;;;;3.40;1.60;;;1.20;96.00;;;;;;5065095;28;20208;-68
2022/04/02 03:45:14;;;;;;;5.83;1.83;;;0.90;96.50;;;;;;5058985;28;20187;-67
2022/04/02 03:47:39;;;;;;;2.97;1.70;;;1.00;96.80;;;;;;5056196;28;20692;-69
2022/04/02 03:50:05;;;;;;;5.23;1.90;;;1.30;96.20;;;;;;5061213;28;20210;-72
2022/04/02 03:52:31;;;;;;;2.47;1.80;;;1.20;96.20;;;;;;5053198;28;20245;-71
2022/04/02 03:54:58;;;;;;;2.93;2.20;;;1.20;96.50;;;;;;5067173;28;20238;-71
2022/04/02 03:57:23;;;;;;;2.13;1.83;;;1.20;96.30;;;;;;5053634;28;20206;-71
2022/04/02 03:59:49;;;;;;;2.07;1.83;;;1.30;96.20;;;;;;5058688;28;20212;-70
2022/04/02 04:02:14;;;;;;;3.20;2.20;;;1.30;96.50;;;;;;5052358;28;20806;-70
2022/04/02 04:04:40;;;;;;;4.97;1.63;;;1.20;96.50;;;;;;5057818;28;20182;-68
2022/04/02 04:07:06;;;;;;;2.27;2.07;;;1.20;96.90;;;;;;5064924;28;20288;-66
2022/04/02 04:09:32;;;;;;;2.23;1.93;;;1.10;97.00;;;;;;5065714;28;20323;-66
2022/04/02 04:11:59;;;;;;;2.23;1.87;;;1.30;96.60;;;;;;5052812;28;20761;-66
2022/04/02 04:14:25;;;;;;;4.23;2.20;;;1.10;96.80;;;;;;5066810;28;20181;-66
2022/04/02 04:16:52;;;;;;;1.80;1.50;;;1.20;96.90;;;;;;5053938;28;20207;-67
2022/04/02 04:19:18;;;;;;;3.70;2.13;;;0.90;97.60;;;;;;5051831;28;20212;-70
2022/04/02 04:21:44;;;;;;;4.13;1.97;;;1.10;97.50;;;;;;5059336;28;20730;-70
2022/04/02 04:24:10;;;;;;;4.67;1.70;;;1.10;97.60;;;;;;5048862;28;20296;-70
2022/04/02 04:26:36;;;;;;;6.23;2.60;;;1.40;97.10;;;;;;5051680;28;20675;-70
2022/04/02 04:29:02;;;;;;;3.63;2.23;;;1.40;96.80;;;;;;5065120;28;20196;-70
2022/04/02 04:31:28;;;;;;;2.57;2.10;;;1.30;97.20;;;;;;5053364;28;20206;-71
2022/04/02 04:33:53;;;;;;;2.33;1.70;;;1.20;97.20;;;;;;5057695;28;20232;-71
2022/04/02 04:36:20;;;;;;;2.53;1.83;;;1.40;96.90;;;;;;5060013;28;20339;-71
2022/04/02 04:38:46;;;;;;;3.20;1.80;;;1.50;96.70;;;;;;5057913;28;20211;-71
2022/04/02 04:41:13;;;;;;;3.57;2.33;;;1.20;97.20;;;;;;5061937;28;20225;-70
2022/04/02 04:43:41;;;;;;;1.87;1.47;;;0.90;98.10;;;;;;5056883;28;20217;-70
2022/04/02 04:46:07;;;;;;;4.13;2.07;;;1.10;97.90;;;;;;5064003;28;20197;-70
2022/04/02 04:48:35;;;;;;;2.67;1.63;;;1.20;97.60;;;;;;5066189;28;20242;-70
2022/04/02 04:51:02;;;;;;;4.63;2.00;;;1.10;97.80;;;;;;5058789;28;20240;-70
2022/04/02 04:53:27;;;;;;;1.90;1.80;;;0.80;98.70;;;;;;5066195;28;20253;-70
2022/04/02 04:55:53;;;;;;;5.43;1.90;;;0.80;99.20;;;;;;5059648;28;20196;-70
2022/04/02 04:58:20;;;;;;;2.23;2.03;;;0.90;98.90;;;;;;5056748;28;20243;-70
2022/04/02 05:00:45;;;;;;;3.07;1.63;;;1.10;98.50;;;;;;5049208;28;20238;-70
2022/04/02 05:03:11;;;;;;;7.33;2.07;;;1.10;98.70;;;;;;5056730;28;20203;-71
2022/04/02 05:05:38;;;;;;;1.80;1.70;;;1.10;98.90;;;;;;5060020;28;20203;-70
2022/04/02 05:08:04;;;;;;;2.83;1.70;;;1.10;98.70;;;;;;5046258;28;20201;-69
2022/04/02 05:10:30;;;;;;;3.03;1.93;;;1.00;99.00;;;;;;5051452;28;20207;-70
2022/04/02 05:12:56;;;;;;;6.60;2.13;;;1.10;98.90;;;;;;5048204;28;20600;-69
2022/04/02 05:15:21;;;;;;;3.87;2.20;;;1.00;99.20;;;;;;5054274;28;20197;-69
2022/04/02 05:17:47;;;;;;;3.00;1.93;;;0.80;99.40;;;;;;5044517;28;20199;-69
2022/04/02 05:20:14;;;;;;;2.37;2.27;;;0.80;99.60;;;;;;5052891;28;20317;-69
2022/04/02 05:22:41;;;;;;;2.60;2.40;;;1.00;99.60;;;;;;5044503;28;20209;-69
2022/04/02 05:25:07;;;;;;;3.70;1.60;;;1.10;99.20;;;;;;5048398;28;20352;-70
2022/04/02 05:27:33;;;;;;;2.33;1.73;;;1.30;98.80;;;;;;5063835;28;20213;-70
2022/04/02 05:30:00;;;;;;;4.20;2.00;;;1.40;98.50;;;;;;5051198;28;20204;-69
2022/04/02 05:32:28;;;;;;;2.57;1.77;;;1.30;98.30;;;;;;5048683;28;20271;-69
2022/04/02 05:34:53;;;;;;;3.30;1.83;;;1.20;98.60;;;;;;5050007;28;20756;-69
2022/04/02 05:37:19;;;;;;;1.63;1.53;;;1.10;99.00;;;;;;5052549;28;20232;-70
2022/04/02 05:39:45;;;;;;;6.30;2.20;;;1.30;99.00;;;;;;5057266;28;20521;-70
2022/04/02 05:42:12;;;;;;;4.73;2.40;;;1.30;98.60;;;;;;5052248;28;20289;-69
2022/04/02 05:44:38;;;;;;;6.53;2.90;;;1.40;98.50;;;;;;5051959;28;20202;-69
2022/04/02 05:47:04;;;;;;;7.40;2.53;;;1.40;98.30;;;;;;5063146;28;20202;-70
2022/04/02 05:49:29;;;;;;;2.93;1.93;;;1.30;98.50;;;;;;5055023;28;20668;-70
2022/04/02 05:51:55;;;;;;;3.37;2.27;;;1.50;98.70;;;;;;5051025;28;20249;-67
2022/04/02 05:54:20;;;;;;;5.10;2.03;;;1.60;98.00;;;;;;5051893;28;20193;-69
2022/04/02 05:56:46;;;;;;;2.27;2.00;;;1.60;97.90;;;;;;5063278;28;20673;-70
2022/04/02 05:59:11;;;;;;;2.80;1.70;;;1.70;97.90;;;;;;5065421;28;20250;-69
2022/04/02 06:01:37;;;;;;;5.00;2.20;;;1.90;97.60;;;;;;5052241;28;20611;-70
2022/04/02 06:04:03;;;;;;;3.57;1.87;;;2.10;97.30;;;;;;5054854;28;20184;-70
2022/04/02 06:06:30;;;;;;;2.53;2.30;;;2.20;96.90;;;;;;5062845;28;20631;-69
2022/04/02 06:08:56;;;;;;;5.30;2.30;;;2.30;96.50;;;;;;5057005;28;20269;-70
2022/04/02 06:11:21;;;;;;;3.73;2.50;;;2.20;96.60;;;;;;5051721;28;20698;-70
2022/04/02 06:13:47;;;;;;;3.50;2.07;;;2.20;96.90;;;;;;5047862;28;20186;-71
2022/04/02 06:16:12;;;;;;;4.50;1.60;;;2.10;97.20;;;;;;5045548;28;20343;-71
2022/04/02 06:18:38;;;;;;;3.43;1.93;;;2.50;96.60;;;;;;5058963;28;20711;-71
2022/04/02 06:21:03;;;;;;;3.20;2.00;;;2.50;96.40;;;;;;5053478;28;20187;-71
2022/04/02 06:23:33;;;;;;;2.70;1.50;;;2.40;96.10;;;;;;5065822;28;20213;-70
2022/04/02 06:25:58;;;;;;;2.10;1.97;;;2.60;95.90;;;;;;5067023;28;20217;-69
2022/04/02 06:28:24;;;;;;;2.30;2.07;;;2.60;95.70;;;;;;5060398;28;20218;-70
2022/04/02 06:30:49;;;;;;;5.47;2.00;;;2.40;96.10;;;;;;5060421;28;20208;-70
2022/04/02 06:33:15;;;;;;;2.10;1.80;;;2.50;96.20;;;;;;5050593;28;20662;-69
2022/04/02 06:35:41;;;;;;;2.80;1.43;;;2.60;96.20;;;;;;5055713;28;20194;-71
2022/04/02 06:38:06;;;;;;;1.57;1.43;;;2.60;96.00;;;;;;5049524;28;20478;-66
2022/04/02 06:40:32;;;;;;;5.53;2.00;;;2.80;95.90;;;;;;5049152;28;20230;-68
2022/04/02 06:42:58;;;;;;;5.87;1.63;;;2.70;95.60;;;;;;5065876;28;20214;-69
2022/04/02 06:45:24;;;;;;;2.40;1.57;;;2.90;95.60;;;;;;5057766;28;20198;-73
2022/04/02 06:47:50;;;;;;;2.43;1.90;;;3.10;95.00;;;;;;5054186;28;20210;-70
2022/04/02 06:50:15;;;;;;;3.60;1.63;;;3.10;95.00;;;;;;5067530;28;20222;-71
2022/04/02 06:52:42;;;;;;;3.57;1.83;;;3.30;94.60;;;;;;5066135;28;21036;-74
2022/04/02 06:55:09;;;;;;;1.97;1.83;;;3.30;94.50;;;;;;5061335;28;20194;-72
2022/04/02 06:57:41;;;;;;;2.50;1.60;;;3.30;94.40;;;;;;5047977;28;20202;-71
2022/04/02 07:00:07;;;;;;;3.70;1.90;;;3.40;94.40;;;;;;5054725;28;20197;-72
2022/04/02 07:02:33;;;;;;;2.13;1.97;;;3.30;94.50;;;;;;5047073;28;20206;-73
2022/04/02 07:04:58;;;;;;;2.40;1.90;;;3.40;94.70;;;;;;5057999;28;20209;-71
2022/04/02 07:07:24;;;;;;;4.83;2.30;;;3.50;93.90;;;;;;5046962;28;20215;-74
2022/04/02 07:09:49;;;;;;;1.97;1.77;;;3.50;94.00;;;;;;5054904;28;20241;-68
2022/04/02 07:12:15;;;;;;;4.90;1.83;;;3.40;94.10;;;;;;5066127;28;20217;-70
2022/04/02 07:14:40;;;;;;;4.20;1.60;;;3.70;93.70;;;;;;5064827;28;20215;-77
2022/04/02 07:17:06;;;;;;;2.20;2.00;;;3.80;93.40;;;;;;5065428;28;20186;-75
2022/04/02 07:19:33;;;;;;;3.30;2.13;;;3.80;93.20;;;;;;5062965;28;20220;-75
2022/04/02 07:22:00;;;;;;;5.10;1.87;;;3.80;93.30;;;;;;5054819;28;20294;-72
2022/04/02 07:24:25;;;;;;;3.43;1.70;;;4.10;93.00;;;;;;5053108;28;20194;-71
2022/04/02 07:26:53;;;;;;;5.23;2.43;;;4.20;92.40;;;;;;5065640;28;20206;-73
2022/04/02 07:29:18;;;;;;;3.93;2.43;;;4.20;92.40;;;;;;5056433;28;20569;-73
2022/04/02 07:31:44;;;;;;;3.70;2.40;;;4.20;92.20;;;;;;5053749;28;20210;-74
2022/04/02 07:34:10;;;;;;;1.80;1.70;;;4.30;92.20;;;;;;5061324;28;20190;-74
2022/04/02 07:36:57;;;;;;;5.43;2.07;;;4.40;91.90;;;;;;5057987;28;20202;-74
2022/04/02 07:39:48;;;;;;;4.60;1.70;;;4.60;91.70;;;;;;5051733;28;20209;-75
2022/04/02 07:42:26;;;;;;;1.80;1.70;;;4.30;91.50;;;;;;5056853;28;20750;-74
2022/04/02 07:45:08;;;;;;;5.27;1.87;;;4.10;92.10;;;;;;5055733;28;20193;-74
2022/04/02 07:47:35;;;;;;;4.20;1.87;;;4.20;92.10;;;;;;5058232;28;20392;-75
2022/04/02 07:50:15;;;;;;;1.33;1.20;;;4.50;91.60;;;;;;5062919;28;20289;-74
2022/04/02 07:52:46;;;;;;;4.30;1.90;;;4.60;91.00;;;;;;5064592;28;20221;-74
2022/04/02 07:55:13;;;;;;;5.60;1.80;;;4.90;90.90;;;;;;5064290;28;20186;-73
2022/04/02 07:57:41;;;;;;;1.87;1.50;;;5.00;90.30;;;;;;5060242;28;20201;-74
2022/04/02 08:00:10;;;;;;;3.00;1.57;;;4.90;89.90;;;;;;5070360;28;20212;-74
2022/04/02 08:02:37;;;;;;;2.00;1.77;;;4.70;90.00;;;;;;5066339;28;20206;-74
2022/04/02 08:05:04;;;;;;;3.67;2.00;;;4.80;90.30;;;;;;5063491;28;20191;-73
2022/04/02 08:07:32;;;;;;;1.40;1.30;;;5.00;89.40;;;;;;5063571;28;20508;-73
2022/04/02 08:09:59;;;;;;;1.70;1.60;;;5.10;88.80;;;;;;5056243;28;20386;-74
2022/04/02 08:12:25;;;;;;;4.50;1.73;;;5.10;87.70;;;;;;5052727;28;20214;-73
2022/04/02 08:14:51;;;;;;;2.70;1.60;;;5.10;85.00;;;;;;5057935;28;20872;-74
2022/04/02 08:17:19;;;;;;;4.70;1.90;;;5.00;82.30;;;;;;5065005;28;20206;-74
2022/04/02 08:19:45;;;;;;;2.33;1.80;;;5.00;82.20;;;;;;5050185;28;20186;-74
2022/04/02 08:22:11;;;;;;;2.97;2.17;;;4.90;80.80;;;;;;5055829;28;20209;-73
2022/04/02 08:24:36;;;;;;;1.83;1.40;;;4.80;79.80;;;;;;5066738;28;20185;-75
2022/04/02 08:27:11;;;;;;;1.70;1.53;;;4.90;78.90;;;;;;5055016;28;20220;-76
2022/04/02 08:29:51;;;;;;;2.00;1.40;;;5.00;78.40;;;;;;5060945;28;20197;-75
2022/04/02 08:32:34;;;;;;;6.80;1.50;;;5.30;77.30;;;;;;5064474;28;20210;-75
2022/04/02 08:35:04;;;;;;;1.80;1.63;;;5.40;75.20;;;;;;5056571;28;20186;-76
2022/04/02 08:38:02;;;;;;;4.00;1.33;;;5.20;74.40;;;;;;5059619;28;20209;-76
2022/04/02 08:40:46;;;;;;;1.67;1.50;;;5.30;74.00;;;;;;5064293;28;20674;-75
2022/04/02 08:43:27;;;;;;;1.47;1.37;;;5.20;73.00;;;;;;5061895;28;20252;-76
2022/04/02 08:45:58;;;;;;;1.30;1.20;;;5.30;72.10;;;;;;5046929;28;20183;-77
2022/04/02 08:48:28;;;;;;;1.43;1.17;;;5.50;71.00;;;;;;5047174;28;20979;-76
2022/04/02 08:51:28;;;;;;;1.40;1.30;;;5.60;69.90;;;;;;5065466;28;20249;-78
2022/04/02 08:54:04;;;;;;;3.50;1.37;;;5.60;68.80;;;;;;5065251;28;20198;-76
2022/04/02 08:56:36;;;;;;;5.10;1.33;;;5.40;68.40;;;;;;5061725;28;20206;-76
2022/04/02 08:59:07;;;;;;;2.10;1.43;;;5.40;68.90;;;;;;5056857;28;20209;-76
2022/04/02 09:01:57;;;;;;;2.63;1.77;;;5.80;68.00;;;;;;5054777;28;20283;-76
2022/04/02 09:05:18;;;;;;;3.37;1.30;;;6.00;65.30;;;;;;5065951;28;20324;-75
2022/04/02 09:08:26;;;;;;;3.03;1.63;;;6.00;64.80;;;;;;5060219;28;20241;-73
2022/04/02 09:11:09;;;;;;;2.00;1.37;;;6.00;63.50;;;;;;5058349;28;20182;-72
2022/04/02 09:13:56;;;;;;;2.10;1.50;;;6.00;64.70;;;;;;5065858;28;20295;-73
2022/04/02 09:16:27;;;;;;;1.50;1.40;;;6.30;64.40;;;;;;5062205;28;20226;-73
2022/04/02 09:19:14;;;;;;;2.83;1.67;;;6.50;63.70;;;;;;5061114;28;20182;-74
2022/04/02 09:21:59;;;;;;;1.97;1.50;;;6.50;62.80;;;;;;5060958;28;20255;-75
2022/04/02 09:25:06;;;;;;;2.13;1.40;;;6.50;62.10;;;;;;5052379;28;20576;-73
2022/04/02 09:28:08;;;;;;;1.70;1.37;;;6.40;61.90;;;;;;5059785;28;20246;-74
2022/04/02 09:30:57;;;;;;;5.50;1.63;;;6.50;61.80;;;;;;5063095;28;20202;-74
2022/04/02 09:33:54;;;;;;;1.70;1.60;;;6.80;61.30;;;;;;5049655;28;20189;-75
2022/04/02 09:36:41;;;;;;;1.20;1.20;;;6.70;61.10;;;;;;5065825;28;20228;-68
2022/04/02 09:39:24;;;;;;;1.60;1.50;;;6.80;61.40;;;;;;5057816;28;20201;-72
2022/04/02 09:42:02;;;;;;;1.50;1.40;;;7.10;60.90;;;;;;5053285;28;20674;-73
2022/04/02 09:44:48;;;;;;;1.43;1.33;;;7.20;59.80;;;;;;5060436;28;20213;-73
2022/04/02 09:47:34;;;;;;;3.67;1.30;;;7.10;60.50;;;;;;5057518;28;20190;-73
2022/04/02 09:50:35;;;;;;;1.97;1.53;;;7.20;58.80;;;;;;5053205;28;20230;-76
2022/04/02 09:53:13;;;;;;;2.30;1.80;;;7.20;59.60;;;;;;4996857;28;20245;-75
2022/04/02 09:55:49;;;;;;;2.10;1.90;;;7.50;59.60;;;;;;5052308;28;20228;-77
2022/04/02 09:58:36;;;;;;;1.70;1.50;;;7.50;59.10;;;;;;5044529;28;20171;-71
2022/04/02 10:01:06;;;;;;;2.80;2.40;;;7.80;58.10;;;;;;5058706;28;20194;-75
2022/04/02 10:04:00;;;;;;;1.47;1.43;;;7.90;57.50;;;;;;5057341;28;20620;-75
2022/04/02 10:06:31;;;;;;;1.43;1.33;;;7.80;56.50;;;;;;5057532;28;20296;-71
2022/04/02 10:09:05;;;;;;;3.83;1.80;;;7.80;56.50;;;;;;5059752;28;20289;-71
2022/04/02 10:11:34;;;;;;;3.03;2.13;;;7.90;56.40;;;;;;5063211;28;20242;-70
2022/04/02 10:14:02;;;;;;;1.63;1.50;;;8.10;56.40;;;;;;5057749;28;20849;-76
2022/04/02 10:16:29;;;;;;;1.67;1.57;;;8.30;56.20;;;;;;5057238;28;20328;-69
2022/04/02 10:18:57;;;;;;;1.80;1.70;;;8.20;54.90;;;;;;5063080;28;20603;-73
2022/04/02 10:21:23;;;;;;;1.53;1.33;;;8.30;55.00;;;;;;5065508;28;20197;-74
2022/04/02 10:23:54;;;;;;;3.07;1.43;;;8.50;56.00;;;;;;5059304;28;20194;-75
2022/04/02 10:26:23;;;;;;;1.50;1.40;;;8.70;55.50;;;;;;5052939;28;21029;-70
2022/04/02 10:28:58;;;;;;;2.60;1.47;;;8.80;54.70;;;;;;5063006;28;20210;-68
2022/04/02 10:31:37;;;;;;;2.40;1.43;;;9.10;54.10;;;;;;5052691;28;20210;-67
2022/04/02 10:34:30;;;;;;;1.60;1.50;;;9.10;54.60;;;;;;5060800;28;20251;-66
2022/04/02 10:37:05;;;;;;;3.03;1.90;;;9.00;54.00;;;;;;5039408;28;20189;-69
2022/04/02 10:39:33;;;;;;;2.53;1.73;;;9.20;53.50;;;;;;5053721;28;20216;-72
2022/04/02 10:42:06;;;;;;;2.47;2.13;;;9.40;52.50;;;;;;5063742;28;20716;-72
2022/04/02 10:44:57;;;;;;;1.63;1.40;;;8.10;52.30;;;;;;5052832;28;20230;-74
2022/04/02 10:47:27;;;;;;;3.17;1.83;;;7.80;54.50;;;;;;5061672;28;20217;-76
2022/04/02 10:50:00;;;;;;;2.70;1.83;;;7.90;55.10;;;;;;5053940;28;20323;-73
2022/04/02 10:52:26;;;;;;;2.13;1.80;;;7.90;54.30;;;;;;5059352;28;20213;-71
2022/04/02 10:54:52;;;;;;;2.60;1.77;;;8.00;54.40;;;;;;5051329;28;20210;-72
2022/04/02 10:57:18;;;;;;;3.37;1.40;;;8.00;53.90;;;;;;5064400;28;20961;-70
2022/04/02 10:59:47;;;;;;;1.60;1.50;;;7.70;53.60;;;;;;5059555;28;20222;-71
2022/04/02 11:02:22;;;;;;;2.17;1.83;;;7.60;53.80;;;;;;5055795;28;20222;-69
2022/04/02 11:04:58;;;;;;;2.03;1.83;;;7.50;54.80;;;;;;5047203;28;20248;-66
2022/04/02 11:07:35;;;;;;;2.47;1.93;;;8.10;55.50;;;;;;5044570;28;20187;-65
2022/04/02 11:10:01;;;;;;;2.97;1.90;;;7.80;53.90;;;;;;5065019;28;20272;-70
2022/04/02 11:12:28;;;;;;;1.93;1.80;;;7.60;54.40;;;;;;5056311;28;20328;-70
2022/04/02 11:15:05;;;;;;;3.30;1.80;;;8.00;54.30;;;;;;5054174;28;20194;-71
2022/04/02 11:17:33;;;;;;;2.33;1.63;;;7.90;54.10;;;;;;5063898;28;20193;-71
2022/04/02 11:20:09;;;;;;;2.00;1.37;;;8.40;53.40;;;;;;5059906;28;20985;-70
2022/04/02 11:23:02;;;;;;;2.87;1.50;;;8.40;52.10;;;;;;5059590;28;20202;-72
2022/04/02 11:25:36;;;;;;;3.47;1.60;;;8.20;53.40;;;;;;5061069;28;20704;-70
2022/04/02 11:28:05;;;;;;;2.80;2.07;;;8.50;53.70;;;;;;5063958;28;20201;-70
2022/04/02 11:30:33;;;;;;;3.60;2.23;;;8.90;54.10;;;;;;5055285;28;20185;-72
2022/04/02 11:33:13;;;;;;;3.80;2.20;;;8.50;55.10;;;;;;5051234;28;20217;-71
2022/04/02 11:36:14;;;;;;;4.10;1.60;;;8.00;56.80;;;;;;5060899;28;20175;-70
2022/04/02 11:38:49;;;;;;;3.33;1.20;;;8.10;57.50;;;;;;5047153;28;20206;-69
2022/04/02 11:41:20;;;;;;;3.47;1.70;;;7.70;58.50;;;;;;5064032;28;20645;-70
2022/04/02 11:43:47;;;;;;;3.50;1.97;;;7.20;60.00;;;;;;5056262;28;20239;-71
2022/04/02 11:46:15;;;;;;;5.07;2.97;;;7.00;61.70;;;;;;5064457;28;20226;-71
2022/04/02 11:48:58;;;;;;;1.40;1.20;;;7.10;62.20;;;;;;5064548;28;20233;-71
2022/04/02 11:51:24;;;;;;;1.70;1.13;;;6.70;62.80;;;;;;5051339;28;20252;-71
2022/04/02 11:53:51;;;;;;;1.47;1.33;;;6.50;64.50;;;;;;5064874;28;20198;-71
2022/04/02 11:56:35;;;;;;;6.20;2.00;;;6.80;63.90;;;;;;5067318;28;20307;-72
2022/04/02 11:59:05;;;;;;;6.03;1.97;;;7.00;62.20;;;;;;5064129;28;20206;-71
2022/04/02 12:01:50;;;;;;;3.20;1.40;;;6.90;63.50;;;;;;5052168;28;20206;-71
2022/04/02 12:04:19;;;;;;;1.37;1.27;;;7.50;62.80;;;;;;5048525;28;20206;-71
2022/04/02 12:06:49;;;;;;;1.27;1.17;;;7.70;62.40;;;;;;5058601;28;20194;-71
2022/04/02 12:09:23;;;;;;;6.80;1.77;;;7.60;62.20;;;;;;5047119;28;20206;-71
2022/04/02 12:12:00;;;;;;;2.80;1.73;;;7.60;62.20;;;;;;5064404;28;20302;-70
2022/04/02 12:14:26;;;;;;;4.93;1.47;;;7.40;62.60;;;;;;5066855;28;20204;-71
2022/04/02 12:17:10;;;;;;;2.40;1.33;;;7.10;64.70;;;;;;5057286;28;20191;-71
2022/04/02 12:19:44;;;;;;;2.77;1.60;;;6.70;66.90;;;;;;5057072;28;20237;-67
2022/04/02 12:22:27;;;;;;;2.23;1.80;;;6.50;68.10;;;;;;5056684;28;20194;-65
2022/04/02 12:24:58;;;;;;;1.07;1.07;;;6.30;69.00;;;;;;5059976;28;20749;-64
2022/04/02 12:27:26;;;;;;;3.43;1.93;;;6.10;68.50;;;;;;5054626;28;20304;-66
2022/04/02 12:29:54;;;;;;;1.37;1.27;;;6.20;68.90;;;;;;5045450;28;20289;-66
2022/04/02 12:32:46;;;;;;;2.23;1.47;;;6.00;67.20;;;;;;5065213;28;20225;-66
2022/04/02 12:35:25;;;;;;;1.63;1.23;;;5.90;66.70;;;;;;5052327;28;20253;-65
2022/04/02 12:37:54;;;;;;;3.23;1.87;;;6.10;67.80;;;;;;5047476;28;20194;-65
2022/04/02 12:40:22;;;;;;;1.50;1.37;;;6.20;66.70;;;;;;5063440;28;20205;-65
2022/04/02 12:42:54;;;;;;;2.70;1.63;;;6.40;66.20;;;;;;5055596;28;20233;-64
2022/04/02 12:45:24;;;;;;;2.17;1.60;;;6.60;65.60;;;;;;5063854;28;20210;-65
2022/04/02 12:48:17;;;;;;;7.53;2.07;;;6.70;65.30;;;;;;5049762;28;20281;-66
2022/04/02 12:51:00;;;;;;;10.10;2.40;;;7.00;66.50;;;;;;5048463;28;20304;-66
2022/04/02 12:53:40;;;;;;;1.17;1.10;;;7.60;65.90;;;;;;5047753;28;20204;-66
2022/04/02 12:56:08;;;;;;;1.43;1.20;;;7.80;65.00;;;;;;5064077;28;20217;-66
2022/04/02 12:58:42;;;;;;;1.80;1.27;;;7.80;65.20;;;;;;5049447;28;20572;-66
2022/04/02 13:01:12;;;;;;;1.70;1.50;;;7.70;64.40;;;;;;5055186;28;20559;-66
2022/04/02 13:03:44;;;;;;;3.17;1.40;;;7.20;64.80;;;;;;5048975;28;20198;-66
2022/04/02 13:06:20;;;;;;;2.97;1.60;;;6.60;66.30;;;;;;5064319;28;20214;-64
2022/04/02 13:09:01;;;;;;;2.53;1.53;;;6.30;68.10;;;;;;5055010;28;20201;-64
2022/04/02 13:11:46;;;;;;;2.33;1.33;;;5.90;68.70;;;;;;5065376;28;20243;-64
2022/04/02 13:14:14;;;;;;;3.20;1.43;;;5.50;69.50;;;;;;5054751;28;20209;-64
2022/04/02 13:16:41;;;;;;;1.73;1.30;;;5.30;69.40;;;;;;5064928;28;20217;-65
2022/04/02 13:22:14;;;;;;;2.53;1.47;;;5.30;68.90;;;;;;5050458;28;20193;-63